Time;durP1;ratioP1;P1;durP2;ratioP2;P2;SDS_P1;SDS_P2;PMS_P1;PMS_P2;Temp;Humidity;BMP_temperature;BMP_pressure;BME280_temperature;BME280_humidity;BME280_pressure;Samples;Min_cycle;Max_cycle;Signal;HPM_P1;HPM_P2
2022/02/17 00:00:55;;;;;;;14.83;14.20;;;;;;;;;;5011436;28;20502;-79
2022/02/17 00:03:22;;;;;;;15.00;14.30;;;;;;;;;;5013036;28;20408;-78
2022/02/17 00:05:51;;;;;;;14.73;14.13;;;;;;;;;;5013016;28;20439;-79
2022/02/17 00:08:19;;;;;;;15.53;14.83;;;;;;;;;;5013087;28;20420;-79
2022/02/17 00:10:47;;;;;;;16.17;15.40;;;;;;;;;;5013093;28;20498;-79
2022/02/17 00:13:14;;;;;;;16.43;15.63;;;;;;;;;;5012584;28;20894;-79
2022/02/17 00:15:41;;;;;;;16.17;15.27;;;;;;;;;;5012648;28;20456;-79
2022/02/17 00:18:13;;;;;;;15.17;14.50;;;;;;;;;;5012690;28;20914;-79
2022/02/17 00:20:40;;;;;;;16.37;15.30;;;;;;;;;;5012935;28;20433;-79
2022/02/17 00:23:09;;;;;;;17.60;16.60;;;;;;;;;;5013149;28;20430;-79
2022/02/17 00:25:36;;;;;;;18.67;17.37;;;;;;;;;;5012323;28;20509;-79
2022/02/17 00:28:03;;;;;;;19.83;17.87;;;;;;;;;;5012449;28;20488;-79
2022/02/17 00:30:31;;;;;;;18.17;16.67;;;;;;;;;;5012555;28;20484;-78
2022/02/17 00:32:58;;;;;;;18.00;16.87;;;;;;;;;;5012325;28;20423;-79
2022/02/17 00:35:26;;;;;;;19.33;17.90;;;;;;;;;;5014187;28;20431;-80
2022/02/17 00:37:54;;;;;;;18.97;17.73;;;;;;;;;;5016237;28;20435;-79
2022/02/17 00:40:23;;;;;;;17.93;17.03;;;;;;;;;;5015244;28;20459;-80
2022/02/17 00:42:50;;;;;;;18.97;17.87;;;;;;;;;;5016280;28;20420;-80
2022/02/17 00:45:18;;;;;;;19.83;18.43;;;;;;;;;;5016436;28;20505;-79
2022/02/17 00:47:45;;;;;;;21.33;19.90;;;;;;;;;;5016265;28;20441;-80
2022/02/17 00:50:13;;;;;;;21.10;19.47;;;;;;;;;;5015086;28;20427;-81
2022/02/17 00:52:41;;;;;;;20.80;19.50;;;;;;;;;;5014900;28;20530;-80
2022/02/17 00:55:08;;;;;;;22.53;21.07;;;;;;;;;;5016369;28;20540;-80
2022/02/17 00:57:37;;;;;;;22.53;20.47;;;;;;;;;;5016414;28;20420;-80
2022/02/17 01:00:05;;;;;;;23.13;21.53;;;;;;;;;;5016148;28;20451;-80
2022/02/17 01:02:32;;;;;;;21.80;20.30;;;;;;;;;;5016512;28;20412;-80
2022/02/17 01:04:59;;;;;;;22.70;21.30;;;;;;;;;;5015869;28;20480;-80
2022/02/17 01:07:27;;;;;;;21.70;20.40;;;;;;;;;;5015777;28;20446;-81
2022/02/17 01:09:54;;;;;;;23.07;21.77;;;;;;;;;;5016083;28;20423;-81
2022/02/17 01:12:21;;;;;;;22.93;21.53;;;;;;;;;;5015621;28;20423;-81
2022/02/17 01:14:50;;;;;;;23.13;21.53;;;;;;;;;;5015777;28;20431;-81
2022/02/17 01:17:18;;;;;;;23.20;21.70;;;;;;;;;;5015961;28;20445;-81
2022/02/17 01:19:45;;;;;;;24.27;22.90;;;;;;;;;;5015600;28;20910;-81
2022/02/17 01:22:13;;;;;;;25.27;23.83;;;;;;;;;;5015572;28;20910;-80
2022/02/17 01:24:41;;;;;;;25.40;23.80;;;;;;;;;;5015341;28;20460;-81
2022/02/17 01:27:08;;;;;;;24.67;22.53;;;;;;;;;;5015610;28;20513;-81
2022/02/17 01:29:36;;;;;;;27.83;26.33;;;;;;;;;;5015264;28;20482;-81
2022/02/17 01:32:05;;;;;;;29.07;27.47;;;;;;;;;;5015535;28;20998;-81
2022/02/17 01:34:32;;;;;;;29.60;27.60;;;;;;;;;;5015243;28;20680;-80
2022/02/17 01:37:00;;;;;;;27.73;26.23;;;;;;;;;;5014071;28;20442;-81
2022/02/17 01:39:27;;;;;;;27.48;25.98;;;;;;;;;;5015637;28;20445;-81
2022/02/17 01:41:55;;;;;;;26.90;25.30;;;;;;;;;;5014992;28;20186;-81
2022/02/17 01:44:23;;;;;;;27.90;26.37;;;;;;;;;;5015036;28;20973;-81
2022/02/17 01:46:50;;;;;;;29.60;27.83;;;;;;;;;;5014008;28;20442;-81
2022/02/17 01:49:19;;;;;;;27.20;25.50;;;;;;;;;;5015328;28;20437;-81
2022/02/17 01:51:46;;;;;;;27.63;26.33;;;;;;;;;;5015431;28;20412;-81
2022/02/17 01:54:14;;;;;;;27.08;25.67;;;;;;;;;;5015241;28;20899;-80
2022/02/17 01:56:42;;;;;;;27.73;26.50;;;;;;;;;;5015194;28;20202;-81
2022/02/17 01:59:11;;;;;;;26.70;25.40;;;;;;;;;;5014876;28;20815;-81
2022/02/17 02:01:39;;;;;;;26.00;24.60;;;;;;;;;;5015249;28;20407;-81
2022/02/17 02:04:06;;;;;;;24.50;23.30;;;;;;;;;;5014634;28;20946;-81
2022/02/17 02:06:35;;;;;;;25.30;23.80;;;;;;;;;;5014660;28;20443;-81
2022/02/17 02:09:03;;;;;;;26.37;24.77;;;;;;;;;;5015056;28;20427;-80
2022/02/17 02:11:31;;;;;;;25.00;23.60;;;;;;;;;;5014366;28;20428;-81
2022/02/17 02:13:58;;;;;;;21.83;20.60;;;;;;;;;;5014940;28;20416;-81
2022/02/17 02:16:25;;;;;;;23.40;21.97;;;;;;;;;;5014541;28;20427;-81
2022/02/17 02:18:53;;;;;;;22.33;21.03;;;;;;;;;;5014581;28;20770;-81
2022/02/17 02:21:23;;;;;;;21.37;20.13;;;;;;;;;;5014866;28;20419;-81
2022/02/17 02:23:50;;;;;;;22.20;20.70;;;;;;;;;;5014675;28;20613;-80
2022/02/17 02:26:18;;;;;;;21.13;20.00;;;;;;;;;;5013043;28;20961;-81
2022/02/17 02:28:45;;;;;;;19.93;18.73;;;;;;;;;;5014242;28;20560;-81
2022/02/17 02:31:13;;;;;;;20.10;18.70;;;;;;;;;;5014497;28;20466;-81
2022/02/17 02:33:42;;;;;;;19.00;18.07;;;;;;;;;;5014324;28;20575;-81
2022/02/17 02:36:10;;;;;;;19.37;18.20;;;;;;;;;;5014395;28;20466;-80
2022/02/17 02:38:39;;;;;;;19.33;17.90;;;;;;;;;;5014154;28;20440;-81
2022/02/17 02:41:06;;;;;;;18.43;17.43;;;;;;;;;;5014339;28;20434;-80
2022/02/17 02:43:34;;;;;;;18.37;17.47;;;;;;;;;;5014250;28;20437;-81
2022/02/17 02:46:01;;;;;;;17.90;17.00;;;;;;;;;;5013893;28;20499;-81
2022/02/17 02:48:29;;;;;;;18.97;17.47;;;;;;;;;;5014280;28;20448;-81
2022/02/17 02:50:56;;;;;;;18.73;17.63;;;;;;;;;;5013884;28;20419;-81
2022/02/17 02:53:24;;;;;;;18.50;17.30;;;;;;;;;;5013741;28;20453;-80
2022/02/17 02:55:53;;;;;;;19.00;17.87;;;;;;;;;;5013881;28;20470;-80
2022/02/17 02:58:20;;;;;;;17.73;16.73;;;;;;;;;;5013420;28;20420;-81
2022/02/17 03:00:48;;;;;;;17.97;16.57;;;;;;;;;;5012418;28;20847;-81
2022/02/17 03:03:16;;;;;;;18.50;17.10;;;;;;;;;;5013701;28;20951;-80
2022/02/17 03:05:44;;;;;;;18.10;17.00;;;;;;;;;;5013484;28;20495;-81
2022/02/17 03:08:11;;;;;;;18.90;17.60;;;;;;;;;;5013500;28;20788;-81
2022/02/17 03:10:39;;;;;;;18.37;17.17;;;;;;;;;;5013752;28;20443;-80
2022/02/17 03:13:08;;;;;;;17.90;16.80;;;;;;;;;;5013781;28;20919;-80
2022/02/17 03:15:35;;;;;;;19.30;17.60;;;;;;;;;;5013757;28;20412;-81
2022/02/17 03:18:03;;;;;;;18.50;16.67;;;;;;;;;;5013424;28;20769;-81
2022/02/17 03:20:30;;;;;;;17.67;16.60;;;;;;;;;;5013628;28;20962;-80
2022/02/17 03:22:58;;;;;;;18.60;17.50;;;;;;;;;;5013707;28;20422;-80
2022/02/17 03:25:25;;;;;;;20.60;18.40;;;;;;;;;;5013265;28;20452;-81
2022/02/17 03:27:52;;;;;;;19.23;17.97;;;;;;;;;;5013588;28;20888;-81
2022/02/17 03:30:21;;;;;;;32.30;30.07;;;;;;;;;;5013332;28;20424;-80
2022/02/17 03:32:48;;;;;;;30.80;28.50;;;;;;;;;;5013416;28;20444;-79
2022/02/17 03:35:17;;;;;;;29.87;27.80;;;;;;;;;;5013438;28;20423;-80
2022/02/17 03:37:44;;;;;;;20.90;18.80;;;;;;;;;;5013417;28;20437;-80
2022/02/17 03:40:12;;;;;;;19.33;17.70;;;;;;;;;;5013435;28;20765;-80
2022/02/17 03:42:42;;;;;;;19.93;17.90;;;;;;;;;;5013295;28;20560;-80
2022/02/17 03:45:10;;;;;;;19.57;17.80;;;;;;;;;;5012060;28;20472;-81
2022/02/17 03:47:40;;;;;;;20.07;18.17;;;;;;;;;;5011753;28;20478;-80
2022/02/17 03:50:08;;;;;;;18.80;17.50;;;;;;;;;;5013506;28;20824;-81
2022/02/17 03:52:36;;;;;;;20.03;18.00;;;;;;;;;;5012146;28;20437;-79
2022/02/17 03:55:04;;;;;;;19.47;17.80;;;;;;;;;;5012869;28;20471;-81
2022/02/17 03:57:31;;;;;;;20.67;18.83;;;;;;;;;;5012860;28;20453;-80
2022/02/17 03:59:58;;;;;;;19.93;18.23;;;;;;;;;;5012886;28;20452;-81
2022/02/17 04:02:26;;;;;;;20.00;18.33;;;;;;;;;;5013035;28;20419;-80
2022/02/17 04:04:54;;;;;;;19.60;18.20;;;;;;;;;;5012787;28;20453;-80
2022/02/17 04:07:22;;;;;;;19.17;18.07;;;;;;;;;;5013057;28;20445;-81
2022/02/17 04:09:49;;;;;;;22.07;19.97;;;;;;;;;;5012433;28;20452;-80
2022/02/17 04:12:16;;;;;;;21.57;19.97;;;;;;;;;;5017229;28;20781;-80
2022/02/17 04:14:44;;;;;;;19.87;18.40;;;;;;;;;;5016736;28;20419;-80
2022/02/17 04:17:11;;;;;;;21.77;19.83;;;;;;;;;;5017020;28;20448;-80
2022/02/17 04:19:38;;;;;;;38.87;34.87;;;;;;;;;;5016757;28;20438;-77
2022/02/17 04:22:09;;;;;;;37.07;32.73;;;;;;;;;;5015358;28;20788;-77
2022/02/17 04:24:37;;;;;;;34.93;31.10;;;;;;;;;;5016682;28;20504;-78
2022/02/17 04:27:04;;;;;;;35.67;32.93;;;;;;;;;;5015507;28;20513;-78
2022/02/17 04:29:32;;;;;;;35.85;32.83;;;;;;;;;;5016504;28;20499;-77
2022/02/17 04:31:59;;;;;;;38.58;35.50;;;;;;;;;;5016546;28;20641;-77
2022/02/17 04:34:27;;;;;;;36.95;34.92;;;;;;;;;;5016259;28;20238;-77
2022/02/17 04:36:54;;;;;;;40.78;38.60;;;;;;;;;;5016641;28;20194;-78
2022/02/17 04:39:23;;;;;;;45.90;43.40;;;;;;;;;;5016430;28;20600;-77
2022/02/17 04:44:38;;;;;;;49.65;46.72;;;;;;;;;;5012619;28;20208;-78
2022/02/17 04:47:05;;;;;;;52.10;48.45;;;;;;;;;;5016675;28;20364;-78
2022/02/17 04:49:33;;;;;;;53.08;49.13;;;;;;;;;;5016125;28;20198;-78
2022/02/17 04:52:00;;;;;;;56.88;52.95;;;;;;;;;;5016675;28;20190;-77
2022/02/17 04:54:29;;;;;;;55.10;51.30;;;;;;;;;;5016057;28;20677;-78
2022/02/17 04:56:56;;;;;;;57.58;53.78;;;;;;;;;;5016067;28;20449;-77
2022/02/17 04:59:24;;;;;;;56.30;52.83;;;;;;;;;;5015888;28;20226;-78
2022/02/17 05:01:51;;;;;;;54.77;51.43;;;;;;;;;;5016312;28;20194;-77
2022/02/17 05:04:19;;;;;;;55.77;53.13;;;;;;;;;;5015849;28;20444;-78
2022/02/17 05:06:46;;;;;;;58.13;54.17;;;;;;;;;;5016007;28;20499;-78
2022/02/17 05:09:13;;;;;;;57.05;53.30;;;;;;;;;;5016172;28;20754;-78
2022/02/17 05:11:42;;;;;;;54.45;51.20;;;;;;;;;;5016137;28;20194;-78
2022/02/17 05:14:09;;;;;;;55.58;52.13;;;;;;;;;;5015649;28;20272;-77
2022/02/17 05:16:37;;;;;;;50.70;47.60;;;;;;;;;;5015526;28;20191;-77
2022/02/17 05:19:04;;;;;;;49.33;46.28;;;;;;;;;;5015619;28;20437;-78
2022/02/17 05:21:32;;;;;;;39.92;37.20;;;;;;;;;;5015672;28;20533;-77
2022/02/17 05:23:59;;;;;;;29.40;27.15;;;;;;;;;;5015580;28;20555;-78
2022/02/17 05:26:26;;;;;;;28.23;26.33;;;;;;;;;;5015429;28;20692;-77
2022/02/17 05:28:55;;;;;;;28.50;26.55;;;;;;;;;;5015248;28;20209;-77
2022/02/17 05:31:23;;;;;;;29.42;26.95;;;;;;;;;;5015652;28;20198;-77
2022/02/17 05:33:50;;;;;;;29.30;27.27;;;;;;;;;;5015458;28;20295;-77
2022/02/17 05:36:17;;;;;;;29.60;27.52;;;;;;;;;;5015547;28;20244;-78
2022/02/17 05:38:45;;;;;;;27.20;25.30;;;;;;;;;;5014028;28;20656;-77
2022/02/17 05:41:12;;;;;;;30.95;28.40;;;;;;;;;;5015242;28;20193;-77
2022/02/17 05:43:39;;;;;;;28.90;27.00;;;;;;;;;;5015368;28;20221;-77
2022/02/17 05:46:08;;;;;;;29.75;27.27;;;;;;;;;;5015078;28;20214;-78
2022/02/17 05:48:36;;;;;;;30.67;28.60;;;;;;;;;;5015062;28;20652;-77
2022/02/17 05:51:03;;;;;;;31.58;29.00;;;;;;;;;;5015031;28;20650;-78
2022/02/17 05:53:31;;;;;;;33.65;31.13;;;;;;;;;;5015036;28;20202;-78
2022/02/17 05:55:58;;;;;;;35.33;32.63;;;;;;;;;;5015192;28;20221;-78
2022/02/17 05:58:25;;;;;;;38.22;35.42;;;;;;;;;;5015142;28;20919;-78
2022/02/17 06:00:52;;;;;;;42.95;40.05;;;;;;;;;;5015399;28;20222;-78
2022/02/17 06:03:21;;;;;;;48.08;44.88;;;;;;;;;;5015134;28;20209;-79
2022/02/17 06:05:49;;;;;;;46.47;43.78;;;;;;;;;;5014978;28;20611;-79
2022/02/17 06:08:16;;;;;;;48.05;45.05;;;;;;;;;;5014898;28;20605;-79
2022/02/17 06:10:43;;;;;;;45.88;42.72;;;;;;;;;;5014914;28;20198;-79
2022/02/17 06:13:11;;;;;;;43.78;41.28;;;;;;;;;;5014807;28;20591;-79
2022/02/17 06:15:38;;;;;;;44.85;42.05;;;;;;;;;;5014816;28;20252;-79
2022/02/17 06:18:06;;;;;;;33.17;30.58;;;;;;;;;;5014738;28;20214;-79
2022/02/17 06:20:35;;;;;;;33.67;31.58;;;;;;;;;;5014778;28;20747;-79
2022/02/17 06:23:02;;;;;;;32.75;30.25;;;;;;;;;;5014819;28;20194;-78
2022/02/17 06:25:30;;;;;;;32.60;30.50;;;;;;;;;;5014537;28;20190;-79
2022/02/17 06:27:59;;;;;;;33.60;31.23;;;;;;;;;;5014527;28;20198;-79
2022/02/17 06:30:26;;;;;;;33.70;30.88;;;;;;;;;;5014225;28;20640;-78
2022/02/17 06:32:55;;;;;;;46.58;43.33;;;;;;;;;;5013595;28;20281;-80
2022/02/17 06:35:22;;;;;;;52.00;48.85;;;;;;;;;;5014617;28;20191;-79
2022/02/17 06:37:52;;;;;;;51.38;48.08;;;;;;;;;;5012808;28;20198;-79
2022/02/17 06:40:20;;;;;;;45.10;42.35;;;;;;;;;;5014418;28;20202;-80
2022/02/17 06:42:47;;;;;;;37.95;35.60;;;;;;;;;;5013929;28;20587;-80
2022/02/17 06:45:14;;;;;;;32.90;31.25;;;;;;;;;;5014292;28;20209;-80
2022/02/17 06:47:42;;;;;;;32.63;30.27;;;;;;;;;;5013912;28;20225;-79
2022/02/17 06:50:11;;;;;;;30.55;28.55;;;;;;;;;;5014296;28;20198;-79
2022/02/17 06:52:38;;;;;;;30.98;28.65;;;;;;;;;;5013921;28;20226;-81
2022/02/17 06:55:08;;;;;;;31.67;29.00;;;;;;;;;;5014163;28;20198;-81
2022/02/17 06:57:36;;;;;;;28.30;26.40;;;;;;;;;;5014163;28;20198;-81
2022/02/17 07:00:04;;;;;;;28.30;26.15;;;;;;;;;;5013882;28;20229;-81
2022/02/17 07:02:33;;;;;;;28.27;26.30;;;;;;;;;;5014040;28;20594;-81
2022/02/17 07:05:01;;;;;;;30.40;28.25;;;;;;;;;;5012486;28;20208;-81
2022/02/17 07:07:29;;;;;;;38.28;36.05;;;;;;;;;;5014078;28;20250;-82
2022/02/17 07:09:56;;;;;;;30.52;29.10;;;;;;;;;;5014047;28;20201;-82
2022/02/17 07:12:26;;;;;;;28.65;26.88;;;;;;;;;;5013418;28;20210;-81
2022/02/17 07:14:56;;;;;;;25.10;23.80;;;;;;;;;;5013958;28;20221;-81
2022/02/17 07:17:24;;;;;;;26.48;24.45;;;;;;;;;;5013824;28;20222;-81
2022/02/17 07:19:51;;;;;;;27.23;25.45;;;;;;;;;;5013869;28;20230;-79
2022/02/17 07:22:19;;;;;;;25.52;23.73;;;;;;;;;;5013731;28;20190;-82
2022/02/17 07:24:46;;;;;;;25.35;23.17;;;;;;;;;;5013284;28;20640;-82
2022/02/17 07:27:14;;;;;;;22.00;20.55;;;;;;;;;;5013733;28;20214;-82
2022/02/17 07:29:43;;;;;;;21.85;20.10;;;;;;;;;;5013380;28;20198;-80
2022/02/17 07:32:11;;;;;;;21.10;19.75;;;;;;;;;;5013643;28;20190;-82
2022/02/17 07:34:38;;;;;;;21.45;20.20;;;;;;;;;;5013347;28;20233;-81
2022/02/17 07:37:06;;;;;;;22.08;20.45;;;;;;;;;;5013655;28;20194;-81
2022/02/17 07:39:33;;;;;;;21.65;20.05;;;;;;;;;;5013461;28;20281;-82
2022/02/17 07:42:01;;;;;;;21.73;20.05;;;;;;;;;;5013445;28;20233;-80
2022/02/17 07:44:28;;;;;;;22.63;21.10;;;;;;;;;;5013541;28;20264;-81
2022/02/17 07:46:57;;;;;;;22.27;20.77;;;;;;;;;;5013029;28;20218;-81
2022/02/17 07:49:25;;;;;;;22.00;20.13;;;;;;;;;;5013102;28;20694;-81
2022/02/17 07:51:53;;;;;;;20.30;19.10;;;;;;;;;;5011912;28;20256;-81
2022/02/17 07:54:20;;;;;;;21.13;19.60;;;;;;;;;;5013381;28;20599;-81
2022/02/17 07:56:48;;;;;;;21.83;20.33;;;;;;;;;;5012796;28;20418;-81
2022/02/17 07:59:15;;;;;;;22.08;20.55;;;;;;;;;;5013068;28;20538;-82
2022/02/17 08:01:43;;;;;;;20.77;19.38;;;;;;;;;;5011596;28;20671;-80
2022/02/17 08:04:12;;;;;;;21.43;20.10;;;;;;;;;;5012890;28;20197;-81
2022/02/17 08:06:43;;;;;;;21.45;20.05;;;;;;;;;;5013050;28;20535;-82
2022/02/17 08:09:10;;;;;;;21.17;19.58;;;;;;;;;;5013011;28;20263;-82
2022/02/17 08:11:38;;;;;;;21.65;19.85;;;;;;;;;;5012871;28;20202;-80
2022/02/17 08:14:05;;;;;;;24.27;22.13;;;;;;;;;;5013033;28;20197;-81
2022/02/17 08:16:33;;;;;;;21.67;20.10;;;;;;;;;;5013039;28;20198;-81
2022/02/17 08:19:02;;;;;;;21.58;20.38;;;;;;;;;;5012765;28;20205;-82
2022/02/17 08:21:31;;;;;;;21.80;20.30;;;;;;;;;;5013043;28;20218;-82
2022/02/17 08:23:58;;;;;;;22.10;20.80;;;;;;;;;;5013276;28;20197;-79
2022/02/17 08:26:26;;;;;;;21.50;20.13;;;;;;;;;;5012590;28;20357;-79
2022/02/17 08:28:57;;;;;;;20.92;19.48;;;;;;;;;;5011712;28;20289;-79
2022/02/17 08:31:25;;;;;;;22.63;20.50;;;;;;;;;;5012599;28;20672;-79
2022/02/17 08:33:52;;;;;;;20.65;19.35;;;;;;;;;;5012516;28;20230;-79
2022/02/17 08:36:19;;;;;;;21.40;20.00;;;;;;;;;;5012643;28;20190;-79
2022/02/17 08:38:48;;;;;;;20.85;19.45;;;;;;;;;;5012767;28;20186;-78
2022/02/17 08:41:16;;;;;;;20.48;19.25;;;;;;;;;;5012552;28;20203;-81
2022/02/17 08:43:43;;;;;;;22.85;21.05;;;;;;;;;;5013137;28;20199;-80
2022/02/17 08:46:11;;;;;;;22.40;20.60;;;;;;;;;;5015554;28;20699;-80
2022/02/17 08:48:38;;;;;;;22.25;20.85;;;;;;;;;;5013403;28;20301;-80
2022/02/17 08:51:07;;;;;;;21.38;19.85;;;;;;;;;;5013799;28;20194;-78
2022/02/17 08:53:35;;;;;;;21.37;19.80;;;;;;;;;;5013546;28;20187;-81
2022/02/17 08:56:04;;;;;;;21.45;19.83;;;;;;;;;;5014766;28;20423;-82
2022/02/17 08:58:32;;;;;;;22.50;21.02;;;;;;;;;;5018929;28;20226;-82
2022/02/17 09:00:59;;;;;;;21.45;20.15;;;;;;;;;;5018298;28;20202;-81
2022/02/17 09:03:27;;;;;;;21.37;19.97;;;;;;;;;;5018448;28;20200;-79
2022/02/17 09:05:54;;;;;;;22.40;20.55;;;;;;;;;;5017899;28;20842;-81
2022/02/17 09:08:25;;;;;;;21.77;20.33;;;;;;;;;;5018138;28;20229;-82
2022/02/17 09:10:53;;;;;;;22.45;20.85;;;;;;;;;;5018591;28;20190;-83
2022/02/17 09:13:23;;;;;;;21.60;19.90;;;;;;;;;;5015321;28;20202;-79
2022/02/17 09:15:50;;;;;;;20.73;19.23;;;;;;;;;;5018359;28;20500;-79
2022/02/17 09:18:17;;;;;;;22.33;20.90;;;;;;;;;;5020623;28;20194;-82
2022/02/17 09:20:45;;;;;;;23.60;21.52;;;;;;;;;;5019648;28;20418;-77
2022/02/17 09:23:12;;;;;;;20.90;19.80;;;;;;;;;;5017207;28;20194;-79
2022/02/17 09:25:40;;;;;;;21.65;20.27;;;;;;;;;;5017857;28;20194;-84
2022/02/17 09:28:08;;;;;;;22.52;20.75;;;;;;;;;;5015389;28;20687;-84
2022/02/17 09:30:38;;;;;;;21.80;20.10;;;;;;;;;;5017294;28;20205;-80
2022/02/17 09:33:06;;;;;;;22.52;20.60;;;;;;;;;;5019333;28;20225;-80
2022/02/17 09:35:33;;;;;;;21.10;19.80;;;;;;;;;;5022790;28;20237;-81
2022/02/17 09:38:01;;;;;;;20.83;19.60;;;;;;;;;;5022621;28;20453;-82
2022/02/17 09:40:31;;;;;;;21.97;20.53;;;;;;;;;;5024303;28;20423;-80
2022/02/17 09:42:59;;;;;;;23.03;21.10;;;;;;;;;;5023328;28;20452;-83
2022/02/17 09:45:27;;;;;;;23.02;21.00;;;;;;;;;;5022096;28;20448;-82
2022/02/17 09:47:58;;;;;;;21.10;19.60;;;;;;;;;;5019635;28;20225;-84
2022/02/17 09:50:25;;;;;;;21.33;19.93;;;;;;;;;;5019539;28;20206;-82
2022/02/17 09:52:53;;;;;;;33.05;30.92;;;;;;;;;;5022411;28;20449;-77
2022/02/17 09:55:20;;;;;;;22.27;20.67;;;;;;;;;;5020775;28;20198;-77
2022/02/17 09:57:49;;;;;;;20.97;19.77;;;;;;;;;;5020200;28;20213;-77
2022/02/17 10:00:17;;;;;;;23.17;21.42;;;;;;;;;;5017523;28;20458;-77
2022/02/17 10:02:44;;;;;;;24.20;21.90;;;;;;;;;;5016822;28;20663;-77
2022/02/17 10:05:15;;;;;;;21.52;20.10;;;;;;;;;;5016229;28;20277;-77
2022/02/17 10:07:45;;;;;;;22.58;20.95;;;;;;;;;;5015047;28;20272;-76
2022/02/17 10:10:14;;;;;;;20.70;19.45;;;;;;;;;;5015161;28;20230;-78
2022/02/17 10:12:51;;;;;;;21.70;20.15;;;;;;;;;;5015558;28;20234;-78
2022/02/17 10:15:32;;;;;;;20.48;18.70;;;;;;;;;;5016299;28;20229;-79
2022/02/17 10:18:08;;;;;;;22.20;20.77;;;;;;;;;;5015573;28;20201;-79
2022/02/17 10:21:08;;;;;;;21.40;19.88;;;;;;;;;;5015214;28;20186;-78
2022/02/17 10:23:41;;;;;;;22.13;19.93;;;;;;;;;;5015142;28;20191;-78
2022/02/17 10:26:10;;;;;;;20.80;19.60;;;;;;;;;;5015672;28;20452;-78
2022/02/17 10:28:38;;;;;;;21.05;19.67;;;;;;;;;;5014492;28;20519;-78
2022/02/17 10:31:06;;;;;;;21.70;20.10;;;;;;;;;;5014454;28;20645;-78
2022/02/17 10:33:42;;;;;;;21.97;20.57;;;;;;;;;;5014427;28;20487;-78
2022/02/17 10:36:11;;;;;;;21.17;19.77;;;;;;;;;;5014196;28;20808;-78
2022/02/17 10:38:39;;;;;;;20.50;18.70;;;;;;;;;;5014458;28;20654;-77
2022/02/17 10:41:06;;;;;;;21.53;19.93;;;;;;;;;;5014096;28;20764;-78
2022/02/17 10:43:34;;;;;;;22.02;19.98;;;;;;;;;;5014052;28;20774;-78
2022/02/17 10:46:05;;;;;;;21.67;19.90;;;;;;;;;;5014091;28;20692;-77
2022/02/17 10:48:33;;;;;;;20.93;19.57;;;;;;;;;;5014172;28;20225;-78
2022/02/17 10:51:04;;;;;;;21.35;19.98;;;;;;;;;;5014680;28;20468;-78
2022/02/17 10:53:36;;;;;;;21.63;20.05;;;;;;;;;;5012767;28;20675;-80
2022/02/17 10:56:05;;;;;;;21.97;20.30;;;;;;;;;;5014180;28;20197;-79
2022/02/17 10:58:34;;;;;;;22.60;20.60;;;;;;;;;;5014121;28;20481;-80
2022/02/17 11:01:02;;;;;;;21.63;20.00;;;;;;;;;;5013885;28;20444;-80
2022/02/17 11:03:31;;;;;;;21.47;20.00;;;;;;;;;;5013766;28;20928;-79
2022/02/17 11:05:59;;;;;;;21.00;19.60;;;;;;;;;;5013728;28;20906;-80
2022/02/17 11:08:26;;;;;;;23.30;21.60;;;;;;;;;;5013837;28;20542;-79
2022/02/17 11:10:56;;;;;;;21.10;19.85;;;;;;;;;;5012568;28;20424;-79
2022/02/17 11:13:25;;;;;;;33.40;31.03;;;;;;;;;;5013358;28;20233;-78
2022/02/17 11:15:53;;;;;;;32.17;30.42;;;;;;;;;;5013587;28;20447;-77
2022/02/17 11:18:21;;;;;;;33.67;31.40;;;;;;;;;;5013781;28;20206;-76
2022/02/17 11:20:49;;;;;;;30.08;28.08;;;;;;;;;;5014485;28;20305;-76
2022/02/17 11:23:18;;;;;;;32.25;28.42;;;;;;;;;;5015021;28;20198;-76
2022/02/17 11:25:47;;;;;;;30.65;28.63;;;;;;;;;;5013096;28;20681;-76
2022/02/17 11:28:16;;;;;;;25.77;23.40;;;;;;;;;;5016568;28;20248;-77
2022/02/17 11:30:44;;;;;;;26.23;23.98;;;;;;;;;;5016255;28;20232;-77
2022/02/17 11:33:22;;;;;;;20.63;19.63;;;;;;;;;;5013442;28;20245;-78
2022/02/17 11:35:50;;;;;;;20.33;19.17;;;;;;;;;;5014322;28;20549;-79
2022/02/17 11:38:31;;;;;;;20.33;19.15;;;;;;;;;;5014746;28;20691;-79
2022/02/17 11:41:04;;;;;;;22.13;20.67;;;;;;;;;;5013956;28;20628;-79
2022/02/17 11:43:34;;;;;;;22.13;20.83;;;;;;;;;;5013620;28;20194;-80
2022/02/17 11:46:01;;;;;;;22.27;20.70;;;;;;;;;;5013707;28;20217;-80
2022/02/17 11:48:36;;;;;;;21.15;19.88;;;;;;;;;;5013463;28;20692;-78
2022/02/17 11:51:17;;;;;;;23.00;21.67;;;;;;;;;;5014352;28;20635;-79
2022/02/17 11:53:45;;;;;;;22.25;20.70;;;;;;;;;;5014469;28;20244;-79
2022/02/17 11:56:48;;;;;;;22.40;20.83;;;;;;;;;;5013871;28;20190;-79
2022/02/17 11:59:38;;;;;;;22.52;20.80;;;;;;;;;;5013788;28;20477;-79
2022/02/17 12:02:07;;;;;;;23.75;22.25;;;;;;;;;;5013166;28;20206;-80
2022/02/17 12:04:35;;;;;;;23.70;21.93;;;;;;;;;;5014147;28;20213;-79
2022/02/17 12:07:09;;;;;;;23.23;21.77;;;;;;;;;;5018917;28;20468;-80
2022/02/17 12:09:39;;;;;;;23.37;22.00;;;;;;;;;;5022301;28;20871;-79
2022/02/17 12:12:23;;;;;;;22.43;21.03;;;;;;;;;;5016673;28;20450;-79
2022/02/17 12:14:53;;;;;;;23.03;21.63;;;;;;;;;;5017266;28;20437;-81
2022/02/17 12:17:30;;;;;;;23.00;21.50;;;;;;;;;;4999828;28;20420;-81
2022/02/17 12:20:10;;;;;;;23.00;21.60;;;;;;;;;;5004238;28;20791;-80
2022/02/17 12:22:40;;;;;;;23.77;22.20;;;;;;;;;;5003998;28;20429;-82
2022/02/17 12:25:14;;;;;;;23.75;22.02;;;;;;;;;;4999000;28;20423;-80
2022/02/17 12:27:42;;;;;;;22.57;20.90;;;;;;;;;;5000746;28;20214;-81
2022/02/17 12:30:13;;;;;;;22.70;21.17;;;;;;;;;;5004307;28;20521;-79
2022/02/17 12:32:40;;;;;;;24.43;22.67;;;;;;;;;;5009896;28;20775;-80
2022/02/17 12:35:08;;;;;;;22.30;20.80;;;;;;;;;;5010129;28;20482;-80
2022/02/17 12:37:35;;;;;;;22.97;21.27;;;;;;;;;;5010943;28;20512;-80
2022/02/17 12:40:03;;;;;;;22.50;21.10;;;;;;;;;;5006857;28;20521;-79
2022/02/17 12:42:41;;;;;;;22.67;21.17;;;;;;;;;;5000453;28;20413;-80
2022/02/17 12:45:09;;;;;;;22.33;20.83;;;;;;;;;;4998322;28;20445;-78
2022/02/17 12:47:39;;;;;;;22.83;21.13;;;;;;;;;;5000957;28;20419;-83
2022/02/17 12:50:07;;;;;;;23.97;22.47;;;;;;;;;;4999604;28;20768;-79
2022/02/17 12:52:34;;;;;;;22.27;20.97;;;;;;;;;;4998263;28;20461;-77
2022/02/17 12:55:07;;;;;;;21.70;20.30;;;;;;;;;;4979944;28;20455;-78
2022/02/17 12:57:35;;;;;;;29.98;21.92;;;;;;;;;;4996970;28;20449;-78
2022/02/17 13:00:08;;;;;;;21.90;20.50;;;;;;;;;;4999422;28;20206;-83
2022/02/17 13:02:42;;;;;;;23.87;22.10;;;;;;;;;;4999578;28;20894;-80
2022/02/17 13:05:10;;;;;;;23.20;21.63;;;;;;;;;;4995682;28;20459;-78
2022/02/17 13:07:37;;;;;;;23.37;21.70;;;;;;;;;;4996717;28;20416;-78
2022/02/17 13:10:05;;;;;;;23.90;22.20;;;;;;;;;;4996563;28;20428;-77
2022/02/17 13:12:32;;;;;;;23.70;22.40;;;;;;;;;;4996638;28;20479;-78
2022/02/17 13:15:00;;;;;;;24.17;22.47;;;;;;;;;;4996811;28;20446;-79
2022/02/17 13:17:34;;;;;;;24.97;23.00;;;;;;;;;;4998175;28;20914;-78
2022/02/17 13:20:22;;;;;;;24.60;22.70;;;;;;;;;;4998144;28;20474;-78
2022/02/17 13:22:50;;;;;;;24.43;22.97;;;;;;;;;;4998567;28;20442;-78
2022/02/17 13:25:17;;;;;;;23.80;22.40;;;;;;;;;;4998319;28;20434;-78
2022/02/17 13:27:47;;;;;;;24.70;23.20;;;;;;;;;;4999392;28;20852;-78
2022/02/17 13:30:16;;;;;;;23.37;21.97;;;;;;;;;;4997531;28;20450;-77
2022/02/17 13:32:44;;;;;;;24.00;22.50;;;;;;;;;;4997620;28;20454;-78
2022/02/17 13:35:18;;;;;;;24.07;22.43;;;;;;;;;;5001858;28;20895;-76
2022/02/17 13:38:08;;;;;;;23.67;22.17;;;;;;;;;;5001644;28;20480;-77
2022/02/17 13:40:50;;;;;;;23.40;22.10;;;;;;;;;;5008325;28;20428;-76
2022/02/17 13:43:19;;;;;;;23.63;22.03;;;;;;;;;;5000023;28;20449;-78
2022/02/17 13:45:47;;;;;;;24.20;22.70;;;;;;;;;;4998045;28;20429;-78
2022/02/17 13:48:31;;;;;;;23.00;21.60;;;;;;;;;;5005428;28;20463;-77
2022/02/17 13:51:25;;;;;;;22.77;21.47;;;;;;;;;;5010789;28;20533;-78
2022/02/17 13:54:19;;;;;;;23.10;21.80;;;;;;;;;;5011868;28;20430;-77
2022/02/17 14:02:15;;;;;;;24.23;22.77;;;;;;;;;;5045859;22;20474;-78
2022/02/17 14:04:47;;;;;;;24.97;23.37;;;;;;;;;;5033222;28;20420;-77
2022/02/17 14:10:13;;;;;;;23.63;22.20;;;;;;;;;;5032040;28;20499;-77
2022/02/17 14:12:50;;;;;;;23.40;21.57;;;;;;;;;;5030971;28;20483;-77
2022/02/17 14:15:22;;;;;;;23.00;21.60;;;;;;;;;;5029264;28;20433;-77
2022/02/17 14:20:38;;;;;;;24.07;22.57;;;;;;;;;;5029551;28;20288;-78
2022/02/17 14:23:07;;;;;;;23.20;21.90;;;;;;;;;;5027161;28;20450;-77
2022/02/17 14:25:42;;;;;;;22.63;21.03;;;;;;;;;;5029513;28;20420;-78
2022/02/17 14:28:18;;;;;;;23.67;22.10;;;;;;;;;;5014406;28;20459;-77
2022/02/17 14:31:04;;;;;;;22.23;20.90;;;;;;;;;;5031121;28;20429;-77
2022/02/17 14:33:34;;;;;;;22.97;21.60;;;;;;;;;;5030023;28;20839;-77
2022/02/17 14:38:50;;;;;;;23.80;22.10;;;;;;;;;;5030283;28;20427;-78
2022/02/17 14:41:30;;;;;;;22.40;20.70;;;;;;;;;;5024834;28;20488;-78
2022/02/17 14:43:59;;;;;;;25.13;23.47;;;;;;;;;;5020100;28;20440;-77